Terminal Aerodrome Forecast
Issued by NWS

Home | Current Version | Previous Version | Text Only | Print | Product List | Glossary On
Versions: 1 2 3 4 5 6 7 8 9 10 11 12 13 14 15 16 17 18 19 20 21 22 23 24 25 26 27
000
FTUS44 KEWX 200500
TAFSSF
TAF
KSSF 200526Z 2006/2106 15008KT P6SM OVC070
     FM200800 11005KT 4SM BR OVC008
     FM201100 13005KT 2SM BR OVC004
     FM201400 13008KT 3SM BR OVC007
     FM201600 14010KT P6SM BKN012
     FM201800 14012KT P6SM BKN025
     FM202200 14010KT P6SM SCT025
     FM210400 14007KT P6SM BKN015=

USA.gov is the U.S. government's official web portal to all federal, state and local government web resources and services.